Terminal Aerodrome Forecast
Issued by NWS

Home | Current Version | Previous Version | Text Only | Print | Product List | Glossary On
Versions: 1 2 3 4 5 6 7 8 9 10 11 12 13 14 15 16 17 18 19 20 21 22 23 24 25 26 27 28 29 30 31 32 33 34
907
FTUS43 KABR 211734
TAFATY
TAF
KATY 211734Z 2118/2218 14005KT 1SM BR OVC002
     FM212100 28005KT 3SM BR OVC003
     FM221000 30007KT 4SM BR OVC003
     FM221600 31008KT P6SM OVC003=

USA.gov is the U.S. government's official web portal to all federal, state and local government web resources and services.